sensor_id;sensor_type;location;lat;lon;timestamp;P1;durP1;ratioP1;P2;durP2;ratioP2
74892;SDS011;63446;56.272;43.922;2023-09-19T00:01:39;13.40;;;5.03;;
74892;SDS011;63446;56.272;43.922;2023-09-19T00:04:11;8.38;;;4.80;;
74892;SDS011;63446;56.272;43.922;2023-09-19T00:06:38;12.27;;;4.93;;
74892;SDS011;63446;56.272;43.922;2023-09-19T00:09:04;9.32;;;4.82;;
74892;SDS011;63446;56.272;43.922;2023-09-19T00:11:30;9.70;;;5.20;;
74892;SDS011;63446;56.272;43.922;2023-09-19T00:13:57;10.90;;;4.68;;
74892;SDS011;63446;56.272;43.922;2023-09-19T00:16:26;12.93;;;5.75;;
74892;SDS011;63446;56.272;43.922;2023-09-19T00:18:52;14.20;;;5.87;;
74892;SDS011;63446;56.272;43.922;2023-09-19T00:21:18;11.70;;;5.75;;
74892;SDS011;63446;56.272;43.922;2023-09-19T00:23:47;11.07;;;4.85;;
74892;SDS011;63446;56.272;43.922;2023-09-19T00:26:13;10.00;;;5.30;;
74892;SDS011;63446;56.272;43.922;2023-09-19T00:28:42;12.10;;;5.20;;
74892;SDS011;63446;56.272;43.922;2023-09-19T00:31:08;11.05;;;5.07;;
74892;SDS011;63446;56.272;43.922;2023-09-19T00:33:34;12.30;;;5.27;;
74892;SDS011;63446;56.272;43.922;2023-09-19T00:36:01;10.55;;;5.53;;
74892;SDS011;63446;56.272;43.922;2023-09-19T00:38:30;10.23;;;5.43;;
74892;SDS011;63446;56.272;43.922;2023-09-19T00:40:57;11.95;;;5.18;;
74892;SDS011;63446;56.272;43.922;2023-09-19T00:43:25;12.35;;;5.95;;
74892;SDS011;63446;56.272;43.922;2023-09-19T00:45:53;12.90;;;5.93;;
74892;SDS011;63446;56.272;43.922;2023-09-19T00:48:20;11.10;;;5.28;;
74892;SDS011;63446;56.272;43.922;2023-09-19T00:50:47;11.82;;;5.40;;
74892;SDS011;63446;56.272;43.922;2023-09-19T00:53:17;9.95;;;5.78;;
74892;SDS011;63446;56.272;43.922;2023-09-19T00:55:46;10.60;;;5.50;;
74892;SDS011;63446;56.272;43.922;2023-09-19T00:58:14;11.10;;;5.40;;
74892;SDS011;63446;56.272;43.922;2023-09-19T01:00:41;15.43;;;6.15;;
74892;SDS011;63446;56.272;43.922;2023-09-19T01:03:10;14.23;;;6.13;;
74892;SDS011;63446;56.272;43.922;2023-09-19T01:05:39;15.15;;;6.18;;
74892;SDS011;63446;56.272;43.922;2023-09-19T01:08:05;13.25;;;6.70;;
74892;SDS011;63446;56.272;43.922;2023-09-19T01:10:32;13.97;;;6.47;;
74892;SDS011;63446;56.272;43.922;2023-09-19T01:15:57;13.25;;;6.25;;
74892;SDS011;63446;56.272;43.922;2023-09-19T01:21:05;15.63;;;7.22;;
74892;SDS011;63446;56.272;43.922;2023-09-19T01:23:42;15.37;;;6.53;;
74892;SDS011;63446;56.272;43.922;2023-09-19T01:31:19;17.88;;;6.63;;
74892;SDS011;63446;56.272;43.922;2023-09-19T01:34:02;15.02;;;7.03;;
74892;SDS011;63446;56.272;43.922;2023-09-19T01:36:34;16.87;;;7.53;;
74892;SDS011;63446;56.272;43.922;2023-09-19T01:39:06;16.60;;;7.15;;
74892;SDS011;63446;56.272;43.922;2023-09-19T01:44:36;14.38;;;6.93;;
74892;SDS011;63446;56.272;43.922;2023-09-19T01:47:23;14.23;;;6.80;;
74892;SDS011;63446;56.272;43.922;2023-09-19T01:50:12;16.50;;;6.60;;
74892;SDS011;63446;56.272;43.922;2023-09-19T01:52:42;15.15;;;7.18;;
74892;SDS011;63446;56.272;43.922;2023-09-19T01:55:30;15.93;;;7.05;;
74892;SDS011;63446;56.272;43.922;2023-09-19T02:01:00;15.10;;;6.78;;
74892;SDS011;63446;56.272;43.922;2023-09-19T02:03:27;17.27;;;7.63;;
74892;SDS011;63446;56.272;43.922;2023-09-19T02:05:55;13.23;;;6.65;;
74892;SDS011;63446;56.272;43.922;2023-09-19T02:08:22;15.23;;;6.63;;
74892;SDS011;63446;56.272;43.922;2023-09-19T02:10:49;13.00;;;6.80;;
74892;SDS011;63446;56.272;43.922;2023-09-19T02:13:19;16.48;;;6.88;;
74892;SDS011;63446;56.272;43.922;2023-09-19T02:15:46;15.20;;;6.00;;
74892;SDS011;63446;56.272;43.922;2023-09-19T02:18:13;11.65;;;6.75;;
74892;SDS011;63446;56.272;43.922;2023-09-19T02:20:41;19.58;;;6.90;;
74892;SDS011;63446;56.272;43.922;2023-09-19T02:23:08;15.88;;;7.28;;
74892;SDS011;63446;56.272;43.922;2023-09-19T02:25:35;24.25;;;11.73;;
74892;SDS011;63446;56.272;43.922;2023-09-19T02:28:01;21.60;;;8.33;;
74892;SDS011;63446;56.272;43.922;2023-09-19T02:30:29;16.45;;;7.07;;
74892;SDS011;63446;56.272;43.922;2023-09-19T02:32:55;16.75;;;6.20;;
74892;SDS011;63446;56.272;43.922;2023-09-19T02:35:21;21.17;;;7.07;;
74892;SDS011;63446;56.272;43.922;2023-09-19T02:37:48;15.18;;;6.65;;
74892;SDS011;63446;56.272;43.922;2023-09-19T02:40:14;20.57;;;6.97;;
74892;SDS011;63446;56.272;43.922;2023-09-19T02:42:55;19.75;;;6.63;;
74892;SDS011;63446;56.272;43.922;2023-09-19T02:45:22;15.73;;;6.50;;
74892;SDS011;63446;56.272;43.922;2023-09-19T02:47:49;14.00;;;7.05;;
74892;SDS011;63446;56.272;43.922;2023-09-19T02:50:15;14.33;;;6.93;;
74892;SDS011;63446;56.272;43.922;2023-09-19T02:52:44;17.42;;;6.80;;
74892;SDS011;63446;56.272;43.922;2023-09-19T02:55:14;18.92;;;7.50;;
74892;SDS011;63446;56.272;43.922;2023-09-19T02:57:46;17.55;;;8.13;;
74892;SDS011;63446;56.272;43.922;2023-09-19T03:00:13;17.20;;;7.95;;
74892;SDS011;63446;56.272;43.922;2023-09-19T03:02:40;19.10;;;7.72;;
74892;SDS011;63446;56.272;43.922;2023-09-19T03:05:07;18.00;;;8.82;;
74892;SDS011;63446;56.272;43.922;2023-09-19T03:07:33;19.35;;;8.73;;
74892;SDS011;63446;56.272;43.922;2023-09-19T03:10:00;16.15;;;8.40;;
74892;SDS011;63446;56.272;43.922;2023-09-19T03:12:26;23.98;;;8.10;;
74892;SDS011;63446;56.272;43.922;2023-09-19T03:14:52;20.92;;;7.30;;
74892;SDS011;63446;56.272;43.922;2023-09-19T03:17:18;17.67;;;7.30;;
74892;SDS011;63446;56.272;43.922;2023-09-19T03:19:45;17.88;;;7.28;;
74892;SDS011;63446;56.272;43.922;2023-09-19T03:22:13;22.60;;;7.00;;
74892;SDS011;63446;56.272;43.922;2023-09-19T03:24:43;17.67;;;7.10;;
74892;SDS011;63446;56.272;43.922;2023-09-19T03:27:10;14.63;;;7.22;;
74892;SDS011;63446;56.272;43.922;2023-09-19T03:29:37;16.70;;;6.80;;
74892;SDS011;63446;56.272;43.922;2023-09-19T03:32:04;26.23;;;7.25;;
74892;SDS011;63446;56.272;43.922;2023-09-19T03:34:30;20.33;;;7.63;;
74892;SDS011;63446;56.272;43.922;2023-09-19T03:36:56;17.80;;;7.77;;
74892;SDS011;63446;56.272;43.922;2023-09-19T03:39:22;24.50;;;9.65;;
74892;SDS011;63446;56.272;43.922;2023-09-19T03:41:48;25.20;;;11.40;;
74892;SDS011;63446;56.272;43.922;2023-09-19T03:44:15;27.65;;;15.00;;
74892;SDS011;63446;56.272;43.922;2023-09-19T03:46:40;27.35;;;15.10;;
74892;SDS011;63446;56.272;43.922;2023-09-19T03:49:07;26.50;;;12.03;;
74892;SDS011;63446;56.272;43.922;2023-09-19T03:51:34;24.73;;;11.20;;
74892;SDS011;63446;56.272;43.922;2023-09-19T03:54:00;24.10;;;11.23;;
74892;SDS011;63446;56.272;43.922;2023-09-19T03:56:26;22.65;;;10.38;;
74892;SDS011;63446;56.272;43.922;2023-09-19T03:58:52;22.43;;;10.37;;
74892;SDS011;63446;56.272;43.922;2023-09-19T04:01:17;25.50;;;10.77;;
74892;SDS011;63446;56.272;43.922;2023-09-19T04:03:44;21.40;;;10.40;;
74892;SDS011;63446;56.272;43.922;2023-09-19T04:06:16;25.10;;;10.57;;
74892;SDS011;63446;56.272;43.922;2023-09-19T04:08:43;22.17;;;9.98;;
74892;SDS011;63446;56.272;43.922;2023-09-19T04:11:10;19.20;;;10.07;;
74892;SDS011;63446;56.272;43.922;2023-09-19T04:13:37;19.83;;;10.23;;
74892;SDS011;63446;56.272;43.922;2023-09-19T04:16:03;20.40;;;9.70;;
74892;SDS011;63446;56.272;43.922;2023-09-19T04:18:30;23.42;;;10.40;;
74892;SDS011;63446;56.272;43.922;2023-09-19T04:20:59;24.60;;;9.65;;
74892;SDS011;63446;56.272;43.922;2023-09-19T04:23:29;29.33;;;10.95;;
74892;SDS011;63446;56.272;43.922;2023-09-19T04:25:54;21.63;;;10.73;;
74892;SDS011;63446;56.272;43.922;2023-09-19T04:28:20;18.67;;;10.48;;
74892;SDS011;63446;56.272;43.922;2023-09-19T04:30:46;17.63;;;10.70;;
74892;SDS011;63446;56.272;43.922;2023-09-19T04:33:11;21.73;;;10.82;;
74892;SDS011;63446;56.272;43.922;2023-09-19T04:35:44;21.87;;;10.37;;
74892;SDS011;63446;56.272;43.922;2023-09-19T04:38:10;26.13;;;10.52;;
74892;SDS011;63446;56.272;43.922;2023-09-19T04:40:36;19.73;;;11.32;;
74892;SDS011;63446;56.272;43.922;2023-09-19T04:43:05;25.30;;;12.63;;
74892;SDS011;63446;56.272;43.922;2023-09-19T04:45:31;19.60;;;11.38;;
74892;SDS011;63446;56.272;43.922;2023-09-19T04:47:57;20.30;;;10.83;;
74892;SDS011;63446;56.272;43.922;2023-09-19T04:50:23;19.77;;;11.02;;
74892;SDS011;63446;56.272;43.922;2023-09-19T04:52:51;21.30;;;9.45;;
74892;SDS011;63446;56.272;43.922;2023-09-19T04:55:18;18.07;;;8.87;;
74892;SDS011;63446;56.272;43.922;2023-09-19T04:57:45;19.00;;;9.80;;
74892;SDS011;63446;56.272;43.922;2023-09-19T05:00:13;16.42;;;10.30;;
74892;SDS011;63446;56.272;43.922;2023-09-19T05:02:45;17.80;;;10.40;;
74892;SDS011;63446;56.272;43.922;2023-09-19T05:05:14;17.70;;;10.13;;
74892;SDS011;63446;56.272;43.922;2023-09-19T05:07:42;18.43;;;8.70;;
74892;SDS011;63446;56.272;43.922;2023-09-19T05:10:09;17.80;;;8.43;;
74892;SDS011;63446;56.272;43.922;2023-09-19T05:12:38;12.98;;;8.23;;
74892;SDS011;63446;56.272;43.922;2023-09-19T05:15:05;12.65;;;6.93;;
74892;SDS011;63446;56.272;43.922;2023-09-19T05:17:34;15.50;;;6.13;;
74892;SDS011;63446;56.272;43.922;2023-09-19T05:20:01;14.70;;;6.10;;
74892;SDS011;63446;56.272;43.922;2023-09-19T05:22:42;13.95;;;5.97;;
74892;SDS011;63446;56.272;43.922;2023-09-19T05:25:09;14.65;;;6.40;;
74892;SDS011;63446;56.272;43.922;2023-09-19T05:27:35;10.30;;;5.22;;
74892;SDS011;63446;56.272;43.922;2023-09-19T05:30:01;10.43;;;3.33;;
74892;SDS011;63446;56.272;43.922;2023-09-19T05:32:29;8.00;;;2.60;;
74892;SDS011;63446;56.272;43.922;2023-09-19T05:34:54;6.43;;;2.37;;
74892;SDS011;63446;56.272;43.922;2023-09-19T05:37:22;8.13;;;2.50;;
74892;SDS011;63446;56.272;43.922;2023-09-19T05:39:48;5.47;;;2.55;;
74892;SDS011;63446;56.272;43.922;2023-09-19T05:42:15;9.15;;;3.20;;
74892;SDS011;63446;56.272;43.922;2023-09-19T05:44:41;5.97;;;2.00;;
74892;SDS011;63446;56.272;43.922;2023-09-19T05:47:07;5.43;;;2.00;;
74892;SDS011;63446;56.272;43.922;2023-09-19T05:49:35;12.70;;;2.47;;
74892;SDS011;63446;56.272;43.922;2023-09-19T05:52:04;5.43;;;1.60;;
74892;SDS011;63446;56.272;43.922;2023-09-19T05:54:31;6.17;;;1.70;;
74892;SDS011;63446;56.272;43.922;2023-09-19T05:57:00;5.30;;;1.52;;
74892;SDS011;63446;56.272;43.922;2023-09-19T05:59:27;4.78;;;1.60;;
74892;SDS011;63446;56.272;43.922;2023-09-19T06:01:53;7.95;;;1.30;;
74892;SDS011;63446;56.272;43.922;2023-09-19T06:04:18;2.77;;;1.20;;
74892;SDS011;63446;56.272;43.922;2023-09-19T06:06:44;5.72;;;2.38;;
74892;SDS011;63446;56.272;43.922;2023-09-19T06:09:14;7.47;;;1.30;;
74892;SDS011;63446;56.272;43.922;2023-09-19T06:11:43;5.70;;;0.95;;
74892;SDS011;63446;56.272;43.922;2023-09-19T06:14:09;4.30;;;1.00;;
74892;SDS011;63446;56.272;43.922;2023-09-19T06:16:36;3.60;;;1.00;;
74892;SDS011;63446;56.272;43.922;2023-09-19T06:19:06;6.57;;;0.90;;
74892;SDS011;63446;56.272;43.922;2023-09-19T06:21:34;4.32;;;0.70;;
74892;SDS011;63446;56.272;43.922;2023-09-19T06:24:00;5.77;;;0.70;;
74892;SDS011;63446;56.272;43.922;2023-09-19T06:26:25;6.03;;;0.70;;
74892;SDS011;63446;56.272;43.922;2023-09-19T06:28:52;4.97;;;0.70;;
74892;SDS011;63446;56.272;43.922;2023-09-19T06:31:18;3.77;;;0.80;;
74892;SDS011;63446;56.272;43.922;2023-09-19T06:33:43;4.32;;;0.98;;
74892;SDS011;63446;56.272;43.922;2023-09-19T06:36:09;2.87;;;0.80;;
74892;SDS011;63446;56.272;43.922;2023-09-19T06:38:35;3.42;;;0.70;;
74892;SDS011;63446;56.272;43.922;2023-09-19T06:41:02;4.03;;;0.90;;
74892;SDS011;63446;56.272;43.922;2023-09-19T06:43:32;3.13;;;1.00;;
74892;SDS011;63446;56.272;43.922;2023-09-19T06:46:02;5.50;;;0.85;;
74892;SDS011;63446;56.272;43.922;2023-09-19T06:48:29;3.83;;;0.93;;
74892;SDS011;63446;56.272;43.922;2023-09-19T06:50:55;4.88;;;0.80;;
74892;SDS011;63446;56.272;43.922;2023-09-19T06:53:21;6.20;;;0.90;;
74892;SDS011;63446;56.272;43.922;2023-09-19T06:55:49;4.43;;;0.90;;
74892;SDS011;63446;56.272;43.922;2023-09-19T06:58:15;5.70;;;1.10;;
74892;SDS011;63446;56.272;43.922;2023-09-19T07:00:42;6.85;;;1.15;;
74892;SDS011;63446;56.272;43.922;2023-09-19T07:03:08;4.40;;;0.95;;
74892;SDS011;63446;56.272;43.922;2023-09-19T07:05:37;6.28;;;1.23;;
74892;SDS011;63446;56.272;43.922;2023-09-19T07:08:09;4.03;;;0.80;;
74892;SDS011;63446;56.272;43.922;2023-09-19T07:10:38;3.10;;;0.70;;
74892;SDS011;63446;56.272;43.922;2023-09-19T07:13:13;5.75;;;0.70;;
74892;SDS011;63446;56.272;43.922;2023-09-19T07:15:42;4.28;;;0.75;;
74892;SDS011;63446;56.272;43.922;2023-09-19T07:18:12;3.05;;;0.70;;
74892;SDS011;63446;56.272;43.922;2023-09-19T07:20:40;3.20;;;0.70;;
74892;SDS011;63446;56.272;43.922;2023-09-19T07:23:14;3.20;;;0.55;;
74892;SDS011;63446;56.272;43.922;2023-09-19T07:25:41;3.38;;;0.80;;
74892;SDS011;63446;56.272;43.922;2023-09-19T07:28:08;2.85;;;0.70;;
74892;SDS011;63446;56.272;43.922;2023-09-19T07:30:43;6.17;;;0.97;;
74892;SDS011;63446;56.272;43.922;2023-09-19T07:33:09;3.15;;;1.00;;
74892;SDS011;63446;56.272;43.922;2023-09-19T07:35:38;4.47;;;0.90;;
74892;SDS011;63446;56.272;43.922;2023-09-19T07:38:07;10.70;;;1.30;;
74892;SDS011;63446;56.272;43.922;2023-09-19T07:40:36;11.10;;;1.27;;
74892;SDS011;63446;56.272;43.922;2023-09-19T07:43:02;10.67;;;1.47;;
74892;SDS011;63446;56.272;43.922;2023-09-19T07:45:30;7.22;;;1.20;;
74892;SDS011;63446;56.272;43.922;2023-09-19T07:47:56;4.15;;;1.17;;
74892;SDS011;63446;56.272;43.922;2023-09-19T07:50:22;3.57;;;1.17;;
74892;SDS011;63446;56.272;43.922;2023-09-19T07:52:49;3.72;;;1.00;;
74892;SDS011;63446;56.272;43.922;2023-09-19T07:55:18;4.18;;;1.15;;
74892;SDS011;63446;56.272;43.922;2023-09-19T07:57:48;3.72;;;1.05;;
74892;SDS011;63446;56.272;43.922;2023-09-19T08:00:14;3.00;;;0.90;;
74892;SDS011;63446;56.272;43.922;2023-09-19T08:02:41;4.03;;;0.90;;
74892;SDS011;63446;56.272;43.922;2023-09-19T08:05:08;7.13;;;1.40;;
74892;SDS011;63446;56.272;43.922;2023-09-19T08:07:37;3.72;;;0.85;;
74892;SDS011;63446;56.272;43.922;2023-09-19T08:10:05;3.30;;;0.93;;
74892;SDS011;63446;56.272;43.922;2023-09-19T08:12:33;3.40;;;0.80;;
74892;SDS011;63446;56.272;43.922;2023-09-19T08:15:01;8.60;;;1.00;;
74892;SDS011;63446;56.272;43.922;2023-09-19T08:17:34;5.00;;;1.05;;
74892;SDS011;63446;56.272;43.922;2023-09-19T08:20:01;6.32;;;0.98;;
74892;SDS011;63446;56.272;43.922;2023-09-19T08:22:29;4.72;;;1.45;;
74892;SDS011;63446;56.272;43.922;2023-09-19T08:24:57;5.97;;;1.80;;
74892;SDS011;63446;56.272;43.922;2023-09-19T08:27:23;3.30;;;1.00;;
74892;SDS011;63446;56.272;43.922;2023-09-19T08:29:52;4.13;;;1.38;;
74892;SDS011;63446;56.272;43.922;2023-09-19T08:32:18;8.68;;;1.60;;
74892;SDS011;63446;56.272;43.922;2023-09-19T08:34:49;3.83;;;1.00;;
74892;SDS011;63446;56.272;43.922;2023-09-19T08:37:15;5.90;;;1.00;;
74892;SDS011;63446;56.272;43.922;2023-09-19T08:39:43;4.45;;;1.00;;
74892;SDS011;63446;56.272;43.922;2023-09-19T08:42:09;7.40;;;1.35;;
74892;SDS011;63446;56.272;43.922;2023-09-19T08:44:37;3.78;;;1.20;;
74892;SDS011;63446;56.272;43.922;2023-09-19T08:47:10;4.72;;;1.20;;
74892;SDS011;63446;56.272;43.922;2023-09-19T08:52:32;5.35;;;1.48;;
74892;SDS011;63446;56.272;43.922;2023-09-19T08:55:02;6.82;;;1.30;;
74892;SDS011;63446;56.272;43.922;2023-09-19T08:57:35;7.50;;;1.52;;
74892;SDS011;63446;56.272;43.922;2023-09-19T09:00:04;5.75;;;1.23;;
74892;SDS011;63446;56.272;43.922;2023-09-19T09:02:36;4.93;;;1.20;;
74892;SDS011;63446;56.272;43.922;2023-09-19T09:05:07;5.63;;;1.50;;
74892;SDS011;63446;56.272;43.922;2023-09-19T09:07:35;5.25;;;1.88;;
74892;SDS011;63446;56.272;43.922;2023-09-19T09:10:03;6.90;;;1.63;;
74892;SDS011;63446;56.272;43.922;2023-09-19T09:12:29;6.93;;;1.50;;
74892;SDS011;63446;56.272;43.922;2023-09-19T09:14:55;5.10;;;1.73;;
74892;SDS011;63446;56.272;43.922;2023-09-19T09:17:23;7.45;;;1.77;;
74892;SDS011;63446;56.272;43.922;2023-09-19T09:19:53;7.28;;;1.75;;
74892;SDS011;63446;56.272;43.922;2023-09-19T09:22:19;7.80;;;2.22;;
74892;SDS011;63446;56.272;43.922;2023-09-19T09:24:53;7.57;;;2.20;;
74892;SDS011;63446;56.272;43.922;2023-09-19T09:27:23;4.90;;;1.80;;
74892;SDS011;63446;56.272;43.922;2023-09-19T09:29:51;6.35;;;2.00;;
74892;SDS011;63446;56.272;43.922;2023-09-19T09:32:27;4.47;;;1.90;;
74892;SDS011;63446;56.272;43.922;2023-09-19T09:34:55;10.02;;;1.98;;
74892;SDS011;63446;56.272;43.922;2023-09-19T09:37:22;9.82;;;2.50;;
74892;SDS011;63446;56.272;43.922;2023-09-19T09:39:51;12.03;;;3.37;;
74892;SDS011;63446;56.272;43.922;2023-09-19T09:42:44;8.40;;;3.47;;
74892;SDS011;63446;56.272;43.922;2023-09-19T09:45:21;14.05;;;4.82;;
74892;SDS011;63446;56.272;43.922;2023-09-19T09:48:03;12.02;;;3.90;;
74892;SDS011;63446;56.272;43.922;2023-09-19T09:50:34;8.68;;;3.42;;
74892;SDS011;63446;56.272;43.922;2023-09-19T09:53:28;12.53;;;4.37;;
74892;SDS011;63446;56.272;43.922;2023-09-19T09:58:27;9.70;;;4.15;;
74892;SDS011;63446;56.272;43.922;2023-09-19T10:00:58;10.32;;;3.67;;
74892;SDS011;63446;56.272;43.922;2023-09-19T10:03:35;9.13;;;3.67;;
74892;SDS011;63446;56.272;43.922;2023-09-19T10:06:06;14.57;;;4.80;;
74892;SDS011;63446;56.272;43.922;2023-09-19T10:11:31;11.98;;;4.20;;
74892;SDS011;63446;56.272;43.922;2023-09-19T10:13:57;15.85;;;4.28;;
74892;SDS011;63446;56.272;43.922;2023-09-19T10:16:29;15.27;;;5.28;;
74892;SDS011;63446;56.272;43.922;2023-09-19T10:18:58;13.23;;;5.50;;
74892;SDS011;63446;56.272;43.922;2023-09-19T10:21:28;16.08;;;5.85;;
74892;SDS011;63446;56.272;43.922;2023-09-19T10:23:56;15.23;;;5.80;;
74892;SDS011;63446;56.272;43.922;2023-09-19T10:26:26;14.88;;;5.38;;
74892;SDS011;63446;56.272;43.922;2023-09-19T10:28:56;14.07;;;5.05;;
74892;SDS011;63446;56.272;43.922;2023-09-19T10:31:30;13.33;;;4.57;;
74892;SDS011;63446;56.272;43.922;2023-09-19T10:34:02;13.48;;;5.57;;
74892;SDS011;63446;56.272;43.922;2023-09-19T10:36:32;11.43;;;5.18;;
74892;SDS011;63446;56.272;43.922;2023-09-19T10:39:00;12.68;;;5.22;;
74892;SDS011;63446;56.272;43.922;2023-09-19T10:41:30;13.52;;;5.45;;
74892;SDS011;63446;56.272;43.922;2023-09-19T10:44:02;12.47;;;4.70;;
74892;SDS011;63446;56.272;43.922;2023-09-19T10:46:33;14.35;;;4.97;;
74892;SDS011;63446;56.272;43.922;2023-09-19T10:48:59;14.75;;;4.35;;
74892;SDS011;63446;56.272;43.922;2023-09-19T10:51:29;15.05;;;4.00;;
74892;SDS011;63446;56.272;43.922;2023-09-19T10:54:12;10.25;;;4.65;;
74892;SDS011;63446;56.272;43.922;2023-09-19T10:56:44;9.93;;;4.10;;
74892;SDS011;63446;56.272;43.922;2023-09-19T10:59:15;15.25;;;5.00;;
74892;SDS011;63446;56.272;43.922;2023-09-19T11:01:46;17.75;;;4.80;;
74892;SDS011;63446;56.272;43.922;2023-09-19T11:07:00;10.18;;;3.88;;
74892;SDS011;63446;56.272;43.922;2023-09-19T11:15:11;9.73;;;3.70;;
74892;SDS011;63446;56.272;43.922;2023-09-19T11:26:57;10.32;;;3.25;;
74892;SDS011;63446;56.272;43.922;2023-09-19T11:29:39;11.52;;;2.50;;
74892;SDS011;63446;56.272;43.922;2023-09-19T11:32:06;4.93;;;1.70;;
74892;SDS011;63446;56.272;43.922;2023-09-19T11:34:42;8.50;;;1.60;;
74892;SDS011;63446;56.272;43.922;2023-09-19T11:39:39;6.32;;;2.00;;
74892;SDS011;63446;56.272;43.922;2023-09-19T11:45:07;3.72;;;1.10;;
74892;SDS011;63446;56.272;43.922;2023-09-19T11:47:33;6.13;;;1.40;;
74892;SDS011;63446;56.272;43.922;2023-09-19T11:50:01;7.95;;;1.70;;
74892;SDS011;63446;56.272;43.922;2023-09-19T11:52:28;6.88;;;1.52;;
74892;SDS011;63446;56.272;43.922;2023-09-19T11:55:00;6.00;;;1.10;;
74892;SDS011;63446;56.272;43.922;2023-09-19T11:57:28;6.35;;;1.20;;
74892;SDS011;63446;56.272;43.922;2023-09-19T11:59:55;5.65;;;1.42;;
74892;SDS011;63446;56.272;43.922;2023-09-19T12:02:34;4.97;;;1.90;;
74892;SDS011;63446;56.272;43.922;2023-09-19T12:05:06;8.85;;;3.47;;
74892;SDS011;63446;56.272;43.922;2023-09-19T12:07:42;8.90;;;3.00;;
74892;SDS011;63446;56.272;43.922;2023-09-19T12:10:11;4.70;;;1.23;;
74892;SDS011;63446;56.272;43.922;2023-09-19T12:12:47;7.07;;;1.15;;
74892;SDS011;63446;56.272;43.922;2023-09-19T12:15:24;4.67;;;1.20;;
74892;SDS011;63446;56.272;43.922;2023-09-19T12:17:59;5.10;;;1.00;;
74892;SDS011;63446;56.272;43.922;2023-09-19T12:20:41;6.18;;;1.00;;
74892;SDS011;63446;56.272;43.922;2023-09-19T12:23:13;5.72;;;0.98;;
74892;SDS011;63446;56.272;43.922;2023-09-19T12:25:43;3.58;;;0.88;;
74892;SDS011;63446;56.272;43.922;2023-09-19T12:28:14;4.27;;;0.90;;
74892;SDS011;63446;56.272;43.922;2023-09-19T12:30:42;5.97;;;1.17;;
74892;SDS011;63446;56.272;43.922;2023-09-19T12:33:17;7.25;;;1.02;;
74892;SDS011;63446;56.272;43.922;2023-09-19T12:35:45;5.47;;;0.95;;
74892;SDS011;63446;56.272;43.922;2023-09-19T12:38:27;4.60;;;1.10;;
74892;SDS011;63446;56.272;43.922;2023-09-19T12:40:55;8.17;;;1.30;;
74892;SDS011;63446;56.272;43.922;2023-09-19T12:43:25;2.90;;;0.70;;
74892;SDS011;63446;56.272;43.922;2023-09-19T12:45:53;3.50;;;0.70;;
74892;SDS011;63446;56.272;43.922;2023-09-19T12:53:37;7.13;;;0.90;;
74892;SDS011;63446;56.272;43.922;2023-09-19T12:56:12;3.53;;;1.10;;
74892;SDS011;63446;56.272;43.922;2023-09-19T12:58:48;3.13;;;0.90;;
74892;SDS011;63446;56.272;43.922;2023-09-19T13:01:14;8.77;;;1.40;;
74892;SDS011;63446;56.272;43.922;2023-09-19T13:03:41;7.53;;;1.00;;
74892;SDS011;63446;56.272;43.922;2023-09-19T13:06:07;4.30;;;0.77;;
74892;SDS011;63446;56.272;43.922;2023-09-19T13:08:37;5.97;;;0.80;;
74892;SDS011;63446;56.272;43.922;2023-09-19T13:11:10;3.08;;;0.60;;
74892;SDS011;63446;56.272;43.922;2023-09-19T13:13:48;3.25;;;0.70;;
74892;SDS011;63446;56.272;43.922;2023-09-19T13:16:20;7.25;;;1.70;;
74892;SDS011;63446;56.272;43.922;2023-09-19T13:18:49;6.80;;;1.17;;
74892;SDS011;63446;56.272;43.922;2023-09-19T13:21:31;7.13;;;0.93;;
74892;SDS011;63446;56.272;43.922;2023-09-19T13:26:46;8.32;;;2.20;;
74892;SDS011;63446;56.272;43.922;2023-09-19T13:29:12;7.35;;;1.75;;
74892;SDS011;63446;56.272;43.922;2023-09-19T13:31:39;5.40;;;0.70;;
74892;SDS011;63446;56.272;43.922;2023-09-19T13:34:07;6.75;;;0.80;;
74892;SDS011;63446;56.272;43.922;2023-09-19T13:36:33;4.18;;;0.70;;
74892;SDS011;63446;56.272;43.922;2023-09-19T13:38:59;4.43;;;0.63;;
74892;SDS011;63446;56.272;43.922;2023-09-19T13:41:25;6.70;;;1.10;;
74892;SDS011;63446;56.272;43.922;2023-09-19T13:43:51;5.50;;;1.25;;
74892;SDS011;63446;56.272;43.922;2023-09-19T13:46:18;2.95;;;0.95;;
74892;SDS011;63446;56.272;43.922;2023-09-19T13:48:50;6.13;;;1.60;;
74892;SDS011;63446;56.272;43.922;2023-09-19T13:51:22;5.35;;;1.27;;
74892;SDS011;63446;56.272;43.922;2023-09-19T13:53:48;2.83;;;0.70;;
74892;SDS011;63446;56.272;43.922;2023-09-19T13:56:15;4.63;;;1.20;;
74892;SDS011;63446;56.272;43.922;2023-09-19T13:58:41;3.33;;;0.80;;
74892;SDS011;63446;56.272;43.922;2023-09-19T14:01:07;5.17;;;0.93;;
74892;SDS011;63446;56.272;43.922;2023-09-19T14:03:41;3.92;;;1.00;;
74892;SDS011;63446;56.272;43.922;2023-09-19T14:06:15;3.08;;;0.90;;
74892;SDS011;63446;56.272;43.922;2023-09-19T14:08:42;3.10;;;0.70;;
74892;SDS011;63446;56.272;43.922;2023-09-19T14:11:10;5.18;;;0.70;;
74892;SDS011;63446;56.272;43.922;2023-09-19T14:13:35;8.40;;;1.15;;
74892;SDS011;63446;56.272;43.922;2023-09-19T14:16:07;7.70;;;1.67;;
74892;SDS011;63446;56.272;43.922;2023-09-19T14:18:37;7.17;;;3.10;;
74892;SDS011;63446;56.272;43.922;2023-09-19T14:21:03;9.50;;;2.55;;
74892;SDS011;63446;56.272;43.922;2023-09-19T14:23:39;4.13;;;1.20;;
74892;SDS011;63446;56.272;43.922;2023-09-19T14:26:05;10.63;;;2.00;;
74892;SDS011;63446;56.272;43.922;2023-09-19T14:28:31;8.57;;;1.83;;
74892;SDS011;63446;56.272;43.922;2023-09-19T14:31:06;12.38;;;1.85;;
74892;SDS011;63446;56.272;43.922;2023-09-19T14:33:34;11.43;;;2.00;;
74892;SDS011;63446;56.272;43.922;2023-09-19T14:36:03;6.72;;;1.52;;
74892;SDS011;63446;56.272;43.922;2023-09-19T14:38:32;9.17;;;1.70;;
74892;SDS011;63446;56.272;43.922;2023-09-19T14:41:02;13.85;;;2.17;;
74892;SDS011;63446;56.272;43.922;2023-09-19T14:43:29;7.20;;;1.80;;
74892;SDS011;63446;56.272;43.922;2023-09-19T14:45:56;8.82;;;2.10;;
74892;SDS011;63446;56.272;43.922;2023-09-19T14:48:23;7.75;;;2.00;;
74892;SDS011;63446;56.272;43.922;2023-09-19T14:50:51;6.30;;;2.10;;
74892;SDS011;63446;56.272;43.922;2023-09-19T14:53:17;6.78;;;2.30;;
74892;SDS011;63446;56.272;43.922;2023-09-19T14:55:43;8.52;;;2.22;;
74892;SDS011;63446;56.272;43.922;2023-09-19T14:58:14;7.83;;;2.17;;
74892;SDS011;63446;56.272;43.922;2023-09-19T15:00:40;7.13;;;1.70;;
74892;SDS011;63446;56.272;43.922;2023-09-19T15:03:05;6.90;;;1.92;;
74892;SDS011;63446;56.272;43.922;2023-09-19T15:05:31;7.17;;;2.10;;
74892;SDS011;63446;56.272;43.922;2023-09-19T15:07:57;10.70;;;2.15;;
74892;SDS011;63446;56.272;43.922;2023-09-19T15:10:23;21.17;;;2.50;;
74892;SDS011;63446;56.272;43.922;2023-09-19T15:12:50;11.43;;;2.50;;
74892;SDS011;63446;56.272;43.922;2023-09-19T15:15:16;17.67;;;2.78;;
74892;SDS011;63446;56.272;43.922;2023-09-19T15:17:42;10.77;;;2.70;;
74892;SDS011;63446;56.272;43.922;2023-09-19T15:20:08;14.75;;;4.25;;
74892;SDS011;63446;56.272;43.922;2023-09-19T15:22:40;20.33;;;4.70;;
74892;SDS011;63446;56.272;43.922;2023-09-19T15:25:05;15.95;;;3.70;;
74892;SDS011;63446;56.272;43.922;2023-09-19T15:27:31;13.88;;;3.60;;
74892;SDS011;63446;56.272;43.922;2023-09-19T15:30:01;10.52;;;2.60;;
74892;SDS011;63446;56.272;43.922;2023-09-19T15:32:28;11.43;;;2.50;;